createdAt,value
2022-09-03T00:02:16.070Z,14.48
2022-09-03T00:04:51.290Z,10.73
2022-09-03T00:07:22.629Z,11.85
2022-09-03T00:10:00.202Z,12.93
2022-09-03T00:12:29.545Z,11.52
2022-09-03T00:15:09.570Z,11.80
2022-09-03T00:17:44.482Z,11.13
2022-09-03T00:20:17.627Z,9.35
2022-09-03T00:22:48.685Z,15.13
2022-09-03T00:25:21.124Z,10.00
2022-09-03T00:27:55.883Z,13.32
2022-09-03T00:30:24.394Z,9.30
2022-09-03T00:33:01.955Z,8.38
2022-09-03T00:35:47.761Z,9.88
2022-09-03T00:38:15.112Z,8.68
2022-09-03T00:41:06.921Z,11.15
2022-09-03T00:44:12.468Z,11.02
2022-09-03T00:46:48.166Z,8.00
2022-09-03T00:49:29.730Z,11.30
2022-09-03T00:52:14.868Z,12.53
2022-09-03T00:54:50.786Z,8.45
2022-09-03T00:57:42.271Z,12.50
2022-09-03T01:00:12.292Z,10.47
2022-09-03T01:02:47.828Z,11.00
2022-09-03T01:05:35.728Z,12.75
2022-09-03T01:08:03.018Z,9.90
2022-09-03T01:10:36.717Z,9.68
2022-09-03T01:13:12.813Z,10.80
2022-09-03T01:16:23.632Z,12.25
2022-09-03T01:19:01.141Z,13.18
2022-09-03T01:22:07.344Z,10.73
2022-09-03T01:25:01.226Z,12.82
2022-09-03T01:28:10.347Z,14.50
2022-09-03T01:30:53.828Z,12.57
2022-09-03T01:33:31.797Z,11.98
2022-09-03T01:36:16.844Z,14.27
2022-09-03T01:38:59.793Z,11.73
2022-09-03T01:41:53.872Z,14.40
2022-09-03T01:44:52.847Z,14.52
2022-09-03T01:47:36.933Z,11.75
2022-09-03T01:50:09.513Z,17.60
2022-09-03T01:53:11.387Z,14.38
2022-09-03T01:56:09.960Z,11.50
2022-09-03T01:58:56.968Z,12.88
2022-09-03T02:01:32.897Z,12.90
2022-09-03T02:04:00.498Z,13.05
2022-09-03T02:06:32.054Z,11.23
2022-09-03T02:08:58.822Z,15.60
2022-09-03T02:11:25.618Z,16.20
2022-09-03T02:13:57.837Z,11.70
2022-09-03T02:16:31.634Z,14.60
2022-09-03T02:19:01.844Z,13.35
2022-09-03T02:21:34.790Z,15.73
2022-09-03T02:24:03.180Z,13.55
2022-09-03T02:26:29.782Z,12.38
2022-09-03T02:28:57.793Z,14.85
2022-09-03T02:31:24.607Z,12.15
2022-09-03T02:33:51.657Z,16.55
2022-09-03T02:36:27.458Z,17.42
2022-09-03T02:38:54.422Z,16.25
2022-09-03T02:41:21.101Z,13.68
2022-09-03T02:43:59.099Z,14.98
2022-09-03T02:46:41.046Z,16.48
2022-09-03T02:49:08.578Z,16.45
2022-09-03T02:51:37.945Z,14.05
2022-09-03T02:54:05.137Z,15.45
2022-09-03T02:56:32.191Z,14.60
2022-09-03T02:58:58.858Z,15.00
2022-09-03T03:01:26.315Z,17.52
2022-09-03T03:03:53.293Z,15.02
2022-09-03T03:06:20.927Z,16.50
2022-09-03T03:08:49.881Z,14.32
2022-09-03T03:11:18.440Z,15.55
2022-09-03T03:13:48.297Z,15.43
2022-09-03T03:16:16.973Z,15.38
2022-09-03T03:18:46.268Z,14.10
2022-09-03T03:21:15.811Z,14.60
2022-09-03T03:23:42.938Z,20.23
2022-09-03T03:26:13.265Z,23.33
2022-09-03T03:28:40.674Z,15.90
2022-09-03T03:31:12.762Z,12.75
2022-09-03T03:33:40.002Z,16.00
2022-09-03T03:36:09.305Z,14.52
2022-09-03T03:38:36.792Z,14.65
2022-09-03T03:41:21.942Z,15.93
2022-09-03T03:43:52.997Z,14.32
2022-09-03T03:46:19.654Z,13.35
2022-09-03T03:48:48.665Z,13.40
2022-09-03T03:51:15.346Z,15.95
2022-09-03T03:53:42.055Z,13.80
2022-09-03T03:56:12.511Z,13.48
2022-09-03T03:58:44.163Z,13.43
2022-09-03T04:01:14.540Z,15.95
2022-09-03T04:03:41.973Z,15.13
2022-09-03T04:06:09.988Z,16.67
2022-09-03T04:08:39.228Z,15.02
2022-09-03T04:11:09.144Z,13.93
2022-09-03T04:13:38.669Z,18.05
2022-09-03T04:16:14.371Z,15.25
2022-09-03T04:18:41.902Z,17.35
2022-09-03T04:21:11.567Z,15.50
2022-09-03T04:23:40.761Z,16.80
2022-09-03T04:26:08.877Z,19.63
2022-09-03T04:28:36.355Z,17.35
2022-09-03T04:31:07.891Z,15.10
2022-09-03T04:33:38.107Z,17.02
2022-09-03T04:36:12.471Z,15.15
2022-09-03T04:38:42.140Z,14.73
2022-09-03T04:41:11.764Z,15.38
2022-09-03T04:43:38.869Z,18.38
2022-09-03T04:46:12.952Z,15.75
2022-09-03T04:48:47.483Z,15.15
2022-09-03T04:51:16.281Z,16.73
2022-09-03T04:53:45.965Z,15.13
2022-09-03T04:56:20.916Z,16.67
2022-09-03T04:58:49.306Z,18.23
2022-09-03T05:01:20.312Z,16.15
2022-09-03T05:03:48.019Z,12.73
2022-09-03T05:06:17.102Z,14.93
2022-09-03T05:08:48.308Z,13.30
2022-09-03T05:11:16.429Z,14.77
2022-09-03T05:13:43.722Z,12.38
2022-09-03T05:16:11.778Z,14.75
2022-09-03T05:18:38.661Z,16.38
2022-09-03T05:21:07.753Z,12.43
2022-09-03T05:23:40.031Z,13.05
2022-09-03T05:26:13.342Z,10.90
2022-09-03T05:28:41.469Z,10.02
2022-09-03T05:31:18.634Z,10.35
2022-09-03T05:33:47.889Z,11.15
2022-09-03T05:36:22.386Z,14.23
2022-09-03T05:38:49.863Z,13.45
2022-09-03T05:41:19.192Z,11.02
2022-09-03T05:43:52.031Z,12.80
2022-09-03T05:46:18.693Z,9.65
2022-09-03T05:48:45.496Z,13.50
2022-09-03T05:51:18.115Z,15.60
2022-09-03T05:53:46.993Z,11.65
2022-09-03T05:56:22.098Z,11.20
2022-09-03T05:58:51.651Z,10.63
2022-09-03T06:01:27.176Z,11.88
2022-09-03T06:04:08.243Z,10.68
2022-09-03T06:06:37.132Z,10.88
2022-09-03T06:09:10.704Z,11.00
2022-09-03T06:11:39.087Z,9.32
2022-09-03T06:14:09.390Z,11.68
2022-09-03T06:16:39.833Z,10.13
2022-09-03T06:19:09.549Z,11.35
2022-09-03T06:21:37.925Z,11.75
2022-09-03T06:24:04.690Z,9.20
2022-09-03T06:26:31.328Z,8.88
2022-09-03T06:28:58.187Z,11.43
2022-09-03T06:31:25.558Z,7.95
2022-09-03T06:33:54.746Z,10.45
2022-09-03T06:36:23.127Z,9.02
2022-09-03T06:38:53.389Z,8.95
2022-09-03T06:41:25.109Z,7.55
2022-09-03T06:43:54.329Z,9.10
2022-09-03T06:46:24.032Z,9.18
2022-09-03T06:48:51.791Z,9.30
2022-09-03T06:51:20.891Z,11.68
2022-09-03T06:54:23.199Z,10.05
2022-09-03T06:56:49.841Z,10.02
2022-09-03T06:59:16.756Z,12.00
2022-09-03T07:01:46.224Z,15.25
2022-09-03T07:04:16.701Z,12.20
2022-09-03T07:06:46.675Z,10.15
2022-09-03T07:09:15.470Z,10.00
2022-09-03T07:11:48.126Z,9.63
2022-09-03T07:14:17.582Z,8.20
2022-09-03T07:16:44.396Z,9.30
2022-09-03T07:19:13.385Z,7.90
2022-09-03T07:21:48.816Z,9.50
2022-09-03T07:24:15.724Z,11.27
2022-09-03T07:26:49.402Z,8.43
2022-09-03T07:29:16.606Z,8.40
2022-09-03T07:31:44.453Z,8.20
2022-09-03T07:34:13.745Z,10.05
2022-09-03T07:36:51.826Z,8.68
2022-09-03T07:39:19.863Z,9.80
2022-09-03T07:41:47.546Z,7.50
2022-09-03T07:44:19.521Z,6.90
2022-09-03T07:46:48.064Z,6.85
2022-09-03T07:49:15.019Z,7.22
2022-09-03T07:51:41.844Z,7.38
2022-09-03T07:54:11.374Z,8.80
2022-09-03T07:56:40.176Z,6.03
2022-09-03T07:59:07.535Z,7.95
2022-09-03T08:01:35.530Z,12.15
2022-09-03T08:04:04.250Z,11.00
2022-09-03T08:06:32.890Z,8.70
2022-09-03T08:09:05.322Z,6.10
2022-09-03T08:11:35.152Z,8.27
2022-09-03T08:14:06.740Z,6.38
2022-09-03T08:16:48.669Z,13.13
2022-09-03T08:19:18.262Z,6.57
2022-09-03T08:21:45.180Z,5.25
2022-09-03T08:24:12.620Z,5.45
2022-09-03T08:26:41.961Z,7.07
2022-09-03T08:29:09.319Z,5.35
2022-09-03T08:31:36.815Z,5.18
2022-09-03T08:34:07.248Z,6.43
2022-09-03T08:36:38.661Z,11.00
2022-09-03T08:39:11.101Z,7.85
2022-09-03T08:42:03.388Z,7.72
2022-09-03T08:47:31.643Z,5.47
2022-09-03T08:50:19.432Z,6.00
2022-09-03T08:53:01.923Z,5.65
2022-09-03T08:55:30.495Z,5.47
2022-09-03T08:58:06.391Z,6.65
2022-09-03T09:01:04.134Z,6.25
2022-09-03T09:03:38.074Z,4.35
2022-09-03T09:06:09.208Z,6.13
2022-09-03T09:08:47.280Z,4.80
2022-09-03T09:11:39.235Z,5.43
2022-09-03T09:14:18.850Z,5.65
2022-09-03T09:16:51.521Z,4.80
2022-09-03T09:19:36.532Z,5.50
2022-09-03T09:22:09.327Z,4.85
2022-09-03T09:24:43.632Z,5.10
2022-09-03T09:27:17.067Z,4.15
2022-09-03T09:29:48.052Z,8.60
2022-09-03T09:32:17.504Z,4.65
2022-09-03T09:34:51.307Z,5.07
2022-09-03T09:37:19.090Z,6.00
2022-09-03T09:39:58.175Z,10.95
2022-09-03T09:42:25.144Z,7.00
2022-09-03T09:44:52.231Z,5.18
2022-09-03T09:47:26.991Z,4.80
2022-09-03T09:49:55.080Z,4.22
2022-09-03T09:52:25.862Z,5.30
2022-09-03T09:54:57.239Z,5.22
2022-09-03T09:57:25.827Z,5.15
2022-09-03T10:00:14.400Z,4.55
2022-09-03T10:02:48.745Z,5.70
2022-09-03T10:05:27.744Z,5.68
2022-09-03T10:08:19.048Z,5.75
2022-09-03T10:10:49.784Z,6.27
2022-09-03T10:13:25.107Z,5.07
2022-09-03T10:15:58.577Z,4.93
2022-09-03T10:18:55.058Z,4.70
2022-09-03T10:21:27.813Z,4.85
2022-09-03T10:23:59.618Z,5.18
2022-09-03T10:26:33.072Z,5.38
2022-09-03T10:29:02.646Z,4.95
2022-09-03T10:31:37.928Z,4.28
2022-09-03T10:34:18.765Z,5.00
2022-09-03T10:37:17.402Z,4.95
2022-09-03T10:39:59.223Z,4.95
2022-09-03T10:42:25.811Z,4.78
2022-09-03T10:45:04.269Z,4.60
2022-09-03T10:48:07.586Z,4.05
2022-09-03T10:50:49.802Z,4.07
2022-09-03T10:53:41.213Z,3.85
2022-09-03T10:56:15.336Z,4.38
2022-09-03T10:59:02.943Z,3.92
2022-09-03T11:01:35.632Z,3.95
2022-09-03T11:04:26.897Z,5.45
2022-09-03T11:07:06.087Z,4.72
2022-09-03T11:09:41.081Z,5.22
2022-09-03T11:12:31.355Z,5.00
2022-09-03T11:15:10.241Z,5.97
2022-09-03T11:17:42.843Z,3.90
2022-09-03T11:20:26.436Z,4.60
2022-09-03T11:23:03.151Z,5.95
2022-09-03T11:25:41.981Z,5.18
2022-09-03T11:28:26.919Z,5.38
2022-09-03T11:31:13.826Z,5.55
2022-09-03T11:33:50.116Z,5.80
2022-09-03T11:36:34.303Z,8.80
2022-09-03T11:39:01.336Z,8.93
2022-09-03T11:41:35.803Z,5.85
2022-09-03T11:44:18.963Z,6.82
2022-09-03T11:46:59.023Z,4.80
2022-09-03T11:49:30.236Z,8.55
2022-09-03T11:52:02.419Z,6.35
2022-09-03T11:54:33.166Z,9.73
2022-09-03T11:57:30.662Z,6.18
2022-09-03T12:00:13.525Z,13.18
2022-09-03T12:02:51.642Z,6.60
2022-09-03T12:05:41.176Z,5.40
2022-09-03T12:08:29.220Z,7.90
2022-09-03T12:11:20.718Z,5.55
2022-09-03T12:14:20.792Z,5.30
2022-09-03T12:16:59.303Z,5.55
2022-09-03T12:19:36.117Z,6.25
2022-09-03T12:22:05.521Z,4.72
2022-09-03T12:24:37.776Z,6.05
2022-09-03T12:27:05.407Z,6.35
2022-09-03T12:29:32.360Z,4.07
2022-09-03T12:32:08.622Z,4.80
2022-09-03T12:34:35.318Z,5.75
2022-09-03T12:37:02.262Z,6.13
2022-09-03T12:42:24.265Z,5.15
2022-09-03T12:44:50.946Z,4.50
2022-09-03T12:47:38.812Z,7.97
2022-09-03T12:50:10.932Z,3.90
2022-09-03T12:52:46.679Z,4.05
2022-09-03T12:55:33.297Z,5.15
2022-09-03T12:58:20.987Z,9.00
2022-09-03T13:00:56.439Z,4.50
2022-09-03T13:03:31.445Z,5.45
2022-09-03T13:06:10.681Z,5.05
2022-09-03T13:08:51.898Z,5.05
2022-09-03T13:11:21.770Z,6.28
2022-09-03T13:14:20.620Z,3.65
2022-09-03T13:16:47.425Z,5.50
2022-09-03T13:19:32.518Z,3.35
2022-09-03T13:22:25.349Z,3.80
2022-09-03T13:25:00.909Z,4.40
2022-09-03T13:27:47.084Z,7.40
2022-09-03T13:30:20.010Z,3.67
2022-09-03T13:33:09.517Z,6.70
2022-09-03T13:36:03.509Z,3.10
2022-09-03T13:38:57.566Z,3.50
2022-09-03T13:41:36.678Z,6.57
2022-09-03T13:44:16.742Z,3.28
2022-09-03T13:46:56.197Z,3.13
2022-09-03T13:49:47.679Z,3.45
2022-09-03T13:52:31.083Z,2.97
2022-09-03T13:55:03.956Z,3.05
2022-09-03T13:57:34.458Z,3.45
2022-09-03T14:00:13.478Z,3.47
2022-09-03T14:02:58.576Z,9.52
2022-09-03T14:05:57.572Z,3.85
2022-09-03T14:09:01.565Z,4.18
2022-09-03T14:11:51.225Z,4.03
2022-09-03T14:14:33.334Z,5.53
2022-09-03T14:17:02.016Z,5.35
2022-09-03T14:19:31.562Z,5.15
2022-09-03T14:22:15.440Z,5.25
2022-09-03T14:25:02.773Z,3.50
2022-09-03T14:27:31.529Z,3.30
2022-09-03T14:30:18.760Z,4.47
2022-09-03T14:32:51.337Z,3.35
2022-09-03T14:35:23.875Z,4.70
2022-09-03T14:37:50.477Z,5.57
2022-09-03T14:40:22.070Z,3.90
2022-09-03T14:43:24.212Z,3.00
2022-09-03T14:48:54.634Z,3.05
2022-09-03T14:51:26.831Z,3.28
2022-09-03T14:54:04.518Z,3.72
2022-09-03T14:57:17.970Z,4.40
2022-09-03T14:59:57.898Z,4.85
2022-09-03T15:02:24.472Z,6.38
2022-09-03T15:05:20.550Z,5.47
2022-09-03T15:08:01.629Z,3.78
2022-09-03T15:10:46.114Z,3.10
2022-09-03T15:13:30.936Z,4.85
2022-09-03T15:16:13.415Z,5.45
2022-09-03T15:21:34.232Z,9.75
2022-09-03T15:24:22.063Z,4.90
2022-09-03T15:27:10.275Z,8.75
2022-09-03T15:29:49.758Z,4.20
2022-09-03T15:32:35.529Z,5.05
2022-09-03T15:35:05.323Z,4.18
2022-09-03T15:37:47.640Z,4.85
2022-09-03T15:40:37.648Z,9.63
2022-09-03T15:43:15.736Z,6.10
2022-09-03T15:45:58.872Z,8.35
2022-09-03T15:48:39.308Z,12.63
2022-09-03T15:51:26.599Z,4.63
2022-09-03T15:54:07.778Z,7.15
2022-09-03T15:56:47.130Z,7.67
2022-09-03T15:59:19.635Z,5.28
2022-09-03T16:01:54.641Z,6.95
2022-09-03T16:04:39.085Z,5.80
2022-09-03T16:07:14.793Z,6.70
2022-09-03T16:10:01.947Z,5.45
2022-09-03T16:13:14.620Z,6.65
2022-09-03T16:15:50.380Z,9.77
2022-09-03T16:18:49.307Z,4.95
2022-09-03T16:21:44.360Z,5.32
2022-09-03T16:24:19.880Z,5.35
2022-09-03T16:26:52.073Z,5.80
2022-09-03T16:29:30.967Z,8.25
2022-09-03T16:32:03.590Z,6.50
2022-09-03T16:35:04.241Z,6.25
2022-09-03T16:37:34.688Z,5.22
2022-09-03T16:40:27.495Z,6.28
2022-09-03T16:43:39.462Z,6.72
2022-09-03T16:46:33.196Z,6.32
2022-09-03T16:49:21.957Z,9.52
2022-09-03T16:52:10.883Z,10.80
2022-09-03T16:55:36.345Z,13.60
2022-09-03T16:58:09.887Z,12.32
2022-09-03T17:01:06.944Z,10.90
2022-09-03T17:04:02.820Z,8.63
2022-09-03T17:06:50.826Z,7.50
2022-09-03T17:09:26.585Z,6.15
2022-09-03T17:12:13.984Z,5.45
2022-09-03T17:15:15.816Z,5.55
2022-09-03T17:17:49.536Z,6.70
2022-09-03T17:20:30.096Z,7.57
2022-09-03T17:23:09.882Z,6.05
2022-09-03T17:25:48.616Z,5.45
2022-09-03T17:28:51.756Z,8.02
2022-09-03T17:31:31.504Z,5.55
2022-09-03T17:34:17.272Z,7.95
2022-09-03T17:37:48.703Z,4.93
2022-09-03T17:40:33.627Z,9.68
2022-09-03T17:43:14.556Z,6.32
2022-09-03T17:46:19.026Z,6.88
2022-09-03T17:48:51.568Z,6.60
2022-09-03T17:51:33.403Z,11.25
2022-09-03T17:54:17.722Z,6.80
2022-09-03T17:57:13.176Z,8.88
2022-09-03T17:59:55.027Z,7.50
2022-09-03T18:02:29.149Z,10.88
2022-09-03T18:05:09.096Z,8.23
2022-09-03T18:08:03.331Z,12.13
2022-09-03T18:10:48.569Z,9.68
2022-09-03T18:13:50.574Z,6.68
2022-09-03T18:16:31.858Z,7.28
2022-09-03T18:19:30.778Z,8.73
2022-09-03T18:22:20.621Z,17.15
2022-09-03T18:25:13.686Z,8.85
2022-09-03T18:28:05.494Z,7.45
2022-09-03T18:30:52.910Z,7.65
2022-09-03T18:33:43.179Z,12.95
2022-09-03T18:36:29.848Z,14.32
2022-09-03T18:39:33.424Z,8.00
2022-09-03T18:42:47.031Z,7.45
2022-09-03T18:46:17.617Z,9.20
2022-09-03T18:48:46.641Z,10.02
2022-09-03T18:51:48.625Z,13.23
2022-09-03T18:55:06.729Z,14.73
2022-09-03T18:58:08.282Z,9.30
2022-09-03T19:04:13.864Z,9.43
2022-09-03T19:07:23.250Z,9.00
2022-09-03T19:10:26.798Z,8.40
2022-09-03T19:13:27.492Z,9.55
2022-09-03T19:16:23.464Z,8.55
2022-09-03T19:19:30.713Z,9.30
2022-09-03T19:22:27.889Z,9.05
2022-09-03T19:25:21.211Z,8.25
2022-09-03T19:28:21.249Z,9.70
2022-09-03T19:31:23.128Z,10.93
2022-09-03T19:35:13.236Z,8.73
2022-09-03T19:38:26.708Z,9.75
2022-09-03T19:41:15.139Z,8.02
2022-09-03T19:44:07.134Z,9.38
2022-09-03T19:46:55.318Z,8.65
2022-09-03T19:49:43.085Z,11.43
2022-09-03T19:52:45.460Z,8.25
2022-09-03T19:55:37.638Z,8.55
2022-09-03T19:58:42.106Z,13.82
2022-09-03T20:01:29.786Z,9.07
2022-09-03T20:04:19.488Z,15.02
2022-09-03T20:07:05.878Z,11.52
2022-09-03T20:09:58.561Z,14.55
2022-09-03T20:12:30.236Z,10.57
2022-09-03T20:14:56.950Z,9.70
2022-09-03T20:17:38.431Z,9.68
2022-09-03T20:20:38.586Z,11.20
2022-09-03T20:23:28.210Z,14.80
2022-09-03T20:26:11.071Z,10.48
2022-09-03T20:29:07.710Z,11.55
2022-09-03T20:31:55.241Z,12.88
2022-09-03T20:34:36.108Z,13.80
2022-09-03T20:37:24.937Z,11.77
2022-09-03T20:40:04.943Z,11.20
2022-09-03T20:42:57.676Z,12.57
2022-09-03T20:45:44.455Z,11.98
2022-09-03T20:48:32.215Z,15.82
2022-09-03T20:51:12.152Z,12.15
2022-09-03T20:54:21.200Z,11.30
2022-09-03T20:56:56.824Z,10.77
2022-09-03T20:59:32.580Z,15.70
2022-09-03T21:02:14.497Z,12.95
2022-09-03T21:05:06.296Z,10.80
2022-09-03T21:08:00.256Z,15.60
2022-09-03T21:10:36.916Z,15.48
2022-09-03T21:13:13.532Z,15.93
2022-09-03T21:16:09.723Z,13.95
2022-09-03T21:18:42.258Z,12.55
2022-09-03T21:21:11.945Z,17.42
2022-09-03T21:23:44.122Z,11.35
2022-09-03T21:26:17.160Z,11.93
2022-09-03T21:28:51.014Z,12.75
2022-09-03T21:31:31.991Z,11.38
2022-09-03T21:34:11.376Z,14.25
2022-09-03T21:36:41.675Z,13.18
2022-09-03T21:39:20.937Z,23.92
2022-09-03T21:42:14.042Z,17.00
2022-09-03T21:44:40.761Z,20.80
2022-09-03T21:47:15.976Z,17.92
2022-09-03T21:50:07.398Z,15.43
2022-09-03T21:52:44.648Z,12.70
2022-09-03T21:55:34.422Z,13.85
2022-09-03T21:58:16.414Z,14.15
2022-09-03T22:00:45.123Z,15.88
2022-09-03T22:03:13.441Z,14.85
2022-09-03T22:06:12.145Z,14.20
2022-09-03T22:08:49.195Z,14.43
2022-09-03T22:11:46.383Z,19.10
2022-09-03T22:14:16.538Z,16.30
2022-09-03T22:17:10.917Z,14.02
2022-09-03T22:19:40.285Z,21.92
2022-09-03T22:22:27.209Z,17.27
2022-09-03T22:25:29.881Z,16.48
2022-09-03T22:28:11.873Z,13.45
2022-09-03T22:30:53.850Z,19.95
2022-09-03T22:33:47.023Z,13.98
2022-09-03T22:36:19.808Z,18.05
2022-09-03T22:39:24.685Z,20.52
2022-09-03T22:42:12.768Z,12.07
2022-09-03T22:45:12.476Z,15.38
2022-09-03T22:48:00.528Z,13.55
2022-09-03T22:50:45.736Z,11.05
2022-09-03T22:53:36.478Z,14.32
2022-09-03T22:56:12.457Z,15.52
2022-09-03T22:58:57.300Z,12.32
2022-09-03T23:02:03.032Z,13.32
2022-09-03T23:04:37.124Z,12.90
2022-09-03T23:07:42.571Z,16.20
2022-09-03T23:10:14.614Z,16.77
2022-09-03T23:13:01.485Z,20.73
2022-09-03T23:15:30.578Z,15.13
2022-09-03T23:18:15.429Z,14.82
2022-09-03T23:20:48.829Z,14.57
2022-09-03T23:23:25.664Z,17.23
2022-09-03T23:26:17.636Z,19.17
2022-09-03T23:28:54.754Z,17.67
2022-09-03T23:31:25.005Z,16.63
2022-09-03T23:33:53.909Z,17.30
2022-09-03T23:37:32.494Z,13.48
2022-09-03T23:40:28.663Z,13.20
2022-09-03T23:43:13.572Z,16.30
2022-09-03T23:46:05.259Z,15.63
2022-09-03T23:48:40.862Z,18.08
2022-09-03T23:51:19.648Z,16.08
2022-09-03T23:53:52.564Z,18.65
2022-09-03T23:56:31.297Z,18.95
2022-09-03T23:59:35.706Z,16.33
